Nasa Shuttle Landing Facility Airport
KTTS : now visible

Airfield :











YOU CAN JOIN US ON...

 
LOGIN :

Register | Disclaimer

   EN    FR    IT 

 









Legend :    VFR   Marginal VFR   IFR   Intensive IFR   Very Intensive IFR
Visi :
Ceiling :
>= 8 km
>= 3000ft
5 to 8 km
1000 to 3000 ft
1500m to 5 km
500 to 1000 ft
800 to 1500m
200 to 500 ft
< 800m
< 200 ft
Symbols :   Thunderstorms  Fog  Heavy snow  Heavy precipitations  Wind > 20 kt






- Airport Elevation : 10 ft


KTTS - Nasa Shuttle Landing Facility

CURRENT METAR :
  • 110728Z AUTO 23005KT 10SM -DZ SCT038 BKN090 22/21 A3012 RMK AO2 DZB28 SLP204 FZRANO $

EXPIRED METARs :
  • 110656Z AUTO 22004KT 10SM BKN038 BKN070 OVC090 22/21 A3012 RMK AO2 SLP204 T02230214 FZRANO $
  • 110601Z AUTO 20004KT 10SM FEW014 SCT024 23/21 A3012 RMK AO2 SLP204 FZRANO $
  • 110556Z AUTO 20003KT 10SM SCT014 BKN024 23/21 A3012 RMK AO2 CIG 014V024 SLP204 60000 T02260214 10239 20225 50006 FZRANO $
  • 110456Z AUTO 00000KT 10SM BKN011 OVC017 23/21 A3013 RMK AO2 RAB16E25 SLP207 P0000 T02260212 402840149 FZRANO $
  • 110445Z AUTO 30003KT 10SM BKN014 OVC046 23/21 A3013 RMK AO2 RAB16E25 CIG 011V015 CIG 013 RWY15 CIG 013 RWY15/33 SLP207 FZRANO $

Expired Forecast.



MET'MAP, your aeronautical weather chart ! - Copyright ORBIFLY December 2007 - Disclaimer

ORBIFLY MET'MAP TEAM :

Programming & Development : Alexandra Zaïnal
Concept & original design : Baudouin d'Aumeries
Assistance for programming : Marc-Olivier Méhu
Technical & hardware support : Manuel Goepfert

Contact : metmap@orbifly.com




SOURCES & CREDITS :

   NOAA       Earth
Advisory